sensor_id;sensor_type;location;lat;lon;timestamp;P1;durP1;ratioP1;P2;durP2;ratioP2
77748;SDS011;66938;52.084;5.228;2023-02-28T00:01:10;10.7;;;8.2;;
77748;SDS011;66938;52.084;5.228;2023-02-28T00:02:47;10.7;;;8.2;;
77748;SDS011;66938;52.084;5.228;2023-02-28T00:06:00;9.5;;;8.5;;
77748;SDS011;66938;52.084;5.228;2023-02-28T00:07:37;10.7;;;8.4;;
77748;SDS011;66938;52.084;5.228;2023-02-28T00:09:14;12.1;;;8.1;;
77748;SDS011;66938;52.084;5.228;2023-02-28T00:12:26;10.9;;;8.31;;
77748;SDS011;66938;52.084;5.228;2023-02-28T00:14:02;10.6;;;7.8;;
77748;SDS011;66938;52.084;5.228;2023-02-28T00:15:39;9.31;;;7.7;;
77748;SDS011;66938;52.084;5.228;2023-02-28T00:18:51;10.9;;;7.8;;
77748;SDS011;66938;52.084;5.228;2023-02-28T00:20:27;9.9;;;7.8;;
77748;SDS011;66938;52.084;5.228;2023-02-28T00:22:03;9.9;;;7.6;;
77748;SDS011;66938;52.084;5.228;2023-02-28T00:23:39;10.3;;;7.7;;
77748;SDS011;66938;52.084;5.228;2023-02-28T00:26:55;8.9;;;8.0;;
77748;SDS011;66938;52.084;5.228;2023-02-28T00:28:32;9.5;;;7.4;;
77748;SDS011;66938;52.084;5.228;2023-02-28T00:30:09;9.0;;;7.2;;
77748;SDS011;66938;52.084;5.228;2023-02-28T00:33:27;9.1;;;7.5;;
77748;SDS011;66938;52.084;5.228;2023-02-28T00:35:05;10.7;;;7.2;;
77748;SDS011;66938;52.084;5.228;2023-02-28T00:36:42;9.5;;;6.8;;
77748;SDS011;66938;52.084;5.228;2023-02-28T00:38:18;8.6;;;6.7;;
77748;SDS011;66938;52.084;5.228;2023-02-28T00:41:32;8.71;;;6.8;;
77748;SDS011;66938;52.084;5.228;2023-02-28T00:43:08;9.1;;;6.5;;
77748;SDS011;66938;52.084;5.228;2023-02-28T00:44:44;8.4;;;6.4;;
77748;SDS011;66938;52.084;5.228;2023-02-28T00:47:56;7.9;;;6.2;;
77748;SDS011;66938;52.084;5.228;2023-02-28T00:49:33;10.21;;;6.3;;
77748;SDS011;66938;52.084;5.228;2023-02-28T00:51:09;8.0;;;6.2;;
77748;SDS011;66938;52.084;5.228;2023-02-28T00:54:23;9.71;;;6.2;;
77748;SDS011;66938;52.084;5.228;2023-02-28T00:55:59;8.6;;;5.8;;
77748;SDS011;66938;52.084;5.228;2023-02-28T00:57:35;8.4;;;6.3;;
77748;SDS011;66938;52.084;5.228;2023-02-28T00:59:11;8.0;;;6.4;;
77748;SDS011;66938;52.084;5.228;2023-02-28T01:02:26;7.4;;;5.9;;
77748;SDS011;66938;52.084;5.228;2023-02-28T01:04:02;8.71;;;6.3;;
77748;SDS011;66938;52.084;5.228;2023-02-28T01:05:38;9.71;;;6.3;;
77748;SDS011;66938;52.084;5.228;2023-02-28T01:08:50;8.1;;;6.2;;
77748;SDS011;66938;52.084;5.228;2023-02-28T01:10:27;9.1;;;6.3;;
77748;SDS011;66938;52.084;5.228;2023-02-28T01:12:04;7.7;;;5.6;;
77748;SDS011;66938;52.084;5.228;2023-02-28T01:15:17;8.71;;;6.3;;
77748;SDS011;66938;52.084;5.228;2023-02-28T01:16:53;9.1;;;6.2;;
77748;SDS011;66938;52.084;5.228;2023-02-28T01:18:29;8.4;;;5.8;;
77748;SDS011;66938;52.084;5.228;2023-02-28T01:20:06;8.1;;;6.1;;
77748;SDS011;66938;52.084;5.228;2023-02-28T01:23:19;8.31;;;5.9;;
77748;SDS011;66938;52.084;5.228;2023-02-28T01:24:56;8.2;;;5.7;;
77748;SDS011;66938;52.084;5.228;2023-02-28T01:26:32;7.8;;;5.9;;
77748;SDS011;66938;52.084;5.228;2023-02-28T01:29:44;8.9;;;6.2;;
77748;SDS011;66938;52.084;5.228;2023-02-28T01:31:20;8.4;;;5.8;;
77748;SDS011;66938;52.084;5.228;2023-02-28T01:32:58;7.9;;;5.8;;
77748;SDS011;66938;52.084;5.228;2023-02-28T01:36:12;7.5;;;5.6;;
77748;SDS011;66938;52.084;5.228;2023-02-28T01:37:51;8.2;;;5.7;;
77748;SDS011;66938;52.084;5.228;2023-02-28T01:39:27;7.4;;;5.7;;
77748;SDS011;66938;52.084;5.228;2023-02-28T01:41:03;7.4;;;5.7;;
77748;SDS011;66938;52.084;5.228;2023-02-28T01:45:22;8.5;;;5.5;;
77748;SDS011;66938;52.084;5.228;2023-02-28T01:47:01;7.2;;;5.4;;
77748;SDS011;66938;52.084;5.228;2023-02-28T01:48:38;7.3;;;5.4;;
77748;SDS011;66938;52.084;5.228;2023-02-28T01:50:19;8.1;;;5.9;;
77748;SDS011;66938;52.084;5.228;2023-02-28T01:51:58;8.2;;;5.4;;
77748;SDS011;66938;52.084;5.228;2023-02-28T01:53:35;7.3;;;5.3;;
77748;SDS011;66938;52.084;5.228;2023-02-28T01:56:58;7.6;;;5.3;;
77748;SDS011;66938;52.084;5.228;2023-02-28T01:58:40;9.1;;;5.4;;
77748;SDS011;66938;52.084;5.228;2023-02-28T02:00:18;8.0;;;5.5;;
77748;SDS011;66938;52.084;5.228;2023-02-28T02:01:59;7.5;;;5.0;;
77748;SDS011;66938;52.084;5.228;2023-02-28T02:05:14;8.1;;;5.2;;
77748;SDS011;66938;52.084;5.228;2023-02-28T02:06:53;8.0;;;5.4;;
77748;SDS011;66938;52.084;5.228;2023-02-28T02:08:30;8.81;;;5.7;;
77748;SDS011;66938;52.084;5.228;2023-02-28T02:11:51;10.0;;;5.6;;
77748;SDS011;66938;52.084;5.228;2023-02-28T02:13:30;9.31;;;5.3;;
77748;SDS011;66938;52.084;5.228;2023-02-28T02:15:29;9.31;;;5.3;;
77748;SDS011;66938;52.084;5.228;2023-02-28T02:17:14;7.8;;;5.4;;
77748;SDS011;66938;52.084;5.228;2023-02-28T02:19:02;7.5;;;5.2;;
77748;SDS011;66938;52.084;5.228;2023-02-28T02:22:37;10.1;;;5.4;;
77748;SDS011;66938;52.084;5.228;2023-02-28T02:25:10;8.5;;;5.4;;
77748;SDS011;66938;52.084;5.228;2023-02-28T02:26:58;8.5;;;5.4;;
77748;SDS011;66938;52.084;5.228;2023-02-28T02:29:51;7.2;;;5.11;;
77748;SDS011;66938;52.084;5.228;2023-02-28T02:32:20;9.1;;;5.5;;
77748;SDS011;66938;52.084;5.228;2023-02-28T02:35:27;9.1;;;5.7;;
77748;SDS011;66938;52.084;5.228;2023-02-28T02:38:56;8.4;;;5.5;;
77748;SDS011;66938;52.084;5.228;2023-02-28T02:40:43;8.2;;;5.5;;
77748;SDS011;66938;52.084;5.228;2023-02-28T02:42:31;7.6;;;5.4;;
77748;SDS011;66938;52.084;5.228;2023-02-28T02:44:17;8.0;;;5.6;;
77748;SDS011;66938;52.084;5.228;2023-02-28T02:45:58;7.5;;;5.3;;
77748;SDS011;66938;52.084;5.228;2023-02-28T02:49:20;7.3;;;5.11;;
77748;SDS011;66938;52.084;5.228;2023-02-28T02:51:00;7.7;;;5.2;;
77748;SDS011;66938;52.084;5.228;2023-02-28T02:52:42;6.7;;;5.11;;
77748;SDS011;66938;52.084;5.228;2023-02-28T02:54:33;7.6;;;5.3;;
77748;SDS011;66938;52.084;5.228;2023-02-28T02:57:51;9.1;;;5.3;;
77748;SDS011;66938;52.084;5.228;2023-02-28T02:59:33;7.6;;;5.6;;
77748;SDS011;66938;52.084;5.228;2023-02-28T03:01:14;8.0;;;5.2;;
77748;SDS011;66938;52.084;5.228;2023-02-28T03:02:54;7.6;;;5.11;;
77748;SDS011;66938;52.084;5.228;2023-02-28T03:06:17;7.5;;;5.5;;
77748;SDS011;66938;52.084;5.228;2023-02-28T03:07:54;8.2;;;5.11;;
77748;SDS011;66938;52.084;5.228;2023-02-28T03:09:32;9.21;;;5.4;;
77748;SDS011;66938;52.084;5.228;2023-02-28T03:11:12;8.31;;;5.4;;
77748;SDS011;66938;52.084;5.228;2023-02-28T03:14:42;8.1;;;5.4;;
77748;SDS011;66938;52.084;5.228;2023-02-28T03:16:33;8.1;;;5.4;;
77748;SDS011;66938;52.084;5.228;2023-02-28T03:18:18;9.81;;;5.4;;
77748;SDS011;66938;52.084;5.228;2023-02-28T03:20:04;7.9;;;5.0;;
77748;SDS011;66938;52.084;5.228;2023-02-28T03:21:54;9.0;;;5.3;;
77748;SDS011;66938;52.084;5.228;2023-02-28T03:23:42;7.4;;;5.4;;
77748;SDS011;66938;52.084;5.228;2023-02-28T03:27:13;7.3;;;5.2;;
77748;SDS011;66938;52.084;5.228;2023-02-28T03:28:59;7.4;;;5.3;;
77748;SDS011;66938;52.084;5.228;2023-02-28T03:30:42;7.2;;;5.2;;
77748;SDS011;66938;52.084;5.228;2023-02-28T03:32:26;8.0;;;5.3;;
77748;SDS011;66938;52.084;5.228;2023-02-28T03:34:10;9.5;;;5.5;;
77748;SDS011;66938;52.084;5.228;2023-02-28T03:37:36;9.1;;;5.4;;
77748;SDS011;66938;52.084;5.228;2023-02-28T03:39:17;9.1;;;5.5;;
77748;SDS011;66938;52.084;5.228;2023-02-28T03:40:58;9.0;;;5.3;;
77748;SDS011;66938;52.084;5.228;2023-02-28T03:42:42;8.6;;;5.2;;
77748;SDS011;66938;52.084;5.228;2023-02-28T03:46:06;7.8;;;5.3;;
77748;SDS011;66938;52.084;5.228;2023-02-28T03:47:47;8.1;;;5.2;;
77748;SDS011;66938;52.084;5.228;2023-02-28T03:49:30;7.3;;;5.4;;
77748;SDS011;66938;52.084;5.228;2023-02-28T03:51:11;6.8;;;4.91;;
77748;SDS011;66938;52.084;5.228;2023-02-28T03:52:53;8.4;;;4.91;;
77748;SDS011;66938;52.084;5.228;2023-02-28T03:56:21;8.4;;;4.91;;
77748;SDS011;66938;52.084;5.228;2023-02-28T03:58:05;7.5;;;5.11;;
77748;SDS011;66938;52.084;5.228;2023-02-28T03:59:52;7.9;;;5.2;;
77748;SDS011;66938;52.084;5.228;2023-02-28T04:01:36;7.9;;;5.2;;
77748;SDS011;66938;52.084;5.228;2023-02-28T04:03:16;8.81;;;5.3;;
77748;SDS011;66938;52.084;5.228;2023-02-28T04:06:30;8.5;;;4.91;;
77748;SDS011;66938;52.084;5.228;2023-02-28T04:08:08;7.2;;;5.0;;
77748;SDS011;66938;52.084;5.228;2023-02-28T04:09:44;8.81;;;5.3;;
77748;SDS011;66938;52.084;5.228;2023-02-28T04:13:02;9.21;;;5.11;;
77748;SDS011;66938;52.084;5.228;2023-02-28T04:14:38;7.4;;;5.2;;
77748;SDS011;66938;52.084;5.228;2023-02-28T04:16:15;8.2;;;5.4;;
77748;SDS011;66938;52.084;5.228;2023-02-28T04:17:51;7.6;;;5.4;;
77748;SDS011;66938;52.084;5.228;2023-02-28T04:21:04;6.8;;;5.4;;
77748;SDS011;66938;52.084;5.228;2023-02-28T04:22:41;8.81;;;5.4;;
77748;SDS011;66938;52.084;5.228;2023-02-28T04:24:18;8.1;;;5.5;;
77748;SDS011;66938;52.084;5.228;2023-02-28T04:27:32;7.9;;;5.4;;
77748;SDS011;66938;52.084;5.228;2023-02-28T04:29:10;7.2;;;5.5;;
77748;SDS011;66938;52.084;5.228;2023-02-28T04:30:53;9.1;;;5.5;;
77748;SDS011;66938;52.084;5.228;2023-02-28T04:32:31;9.0;;;5.8;;
77748;SDS011;66938;52.084;5.228;2023-02-28T04:35:43;6.8;;;5.3;;
77748;SDS011;66938;52.084;5.228;2023-02-28T04:37:19;6.8;;;5.3;;
77748;SDS011;66938;52.084;5.228;2023-02-28T04:38:55;7.0;;;5.2;;
77748;SDS011;66938;52.084;5.228;2023-02-28T04:42:09;7.1;;;4.8;;
77748;SDS011;66938;52.084;5.228;2023-02-28T04:43:46;7.1;;;5.11;;
77748;SDS011;66938;52.084;5.228;2023-02-28T04:45:22;6.7;;;4.8;;
77748;SDS011;66938;52.084;5.228;2023-02-28T04:48:35;6.3;;;4.61;;
77748;SDS011;66938;52.084;5.228;2023-02-28T04:50:14;5.2;;;4.41;;
77748;SDS011;66938;52.084;5.228;2023-02-28T04:51:50;8.2;;;4.8;;
77748;SDS011;66938;52.084;5.228;2023-02-28T04:53:26;7.7;;;4.7;;
77748;SDS011;66938;52.084;5.228;2023-02-28T04:56:42;6.0;;;4.41;;
77748;SDS011;66938;52.084;5.228;2023-02-28T04:58:18;7.2;;;4.41;;
77748;SDS011;66938;52.084;5.228;2023-02-28T04:59:54;6.7;;;4.5;;
77748;SDS011;66938;52.084;5.228;2023-02-28T05:03:08;7.1;;;4.61;;
77748;SDS011;66938;52.084;5.228;2023-02-28T05:04:45;6.7;;;4.5;;
77748;SDS011;66938;52.084;5.228;2023-02-28T05:06:21;5.3;;;4.41;;
77748;SDS011;66938;52.084;5.228;2023-02-28T05:09:35;5.6;;;4.2;;
77748;SDS011;66938;52.084;5.228;2023-02-28T05:11:14;5.9;;;4.5;;
77748;SDS011;66938;52.084;5.228;2023-02-28T05:12:52;5.9;;;4.1;;
77748;SDS011;66938;52.084;5.228;2023-02-28T05:14:28;6.6;;;4.1;;
77748;SDS011;66938;52.084;5.228;2023-02-28T05:17:42;6.2;;;4.2;;
77748;SDS011;66938;52.084;5.228;2023-02-28T05:19:19;5.8;;;4.0;;
77748;SDS011;66938;52.084;5.228;2023-02-28T05:20:55;5.3;;;4.1;;
77748;SDS011;66938;52.084;5.228;2023-02-28T05:24:09;6.2;;;4.0;;
77748;SDS011;66938;52.084;5.228;2023-02-28T05:25:48;7.5;;;4.0;;
77748;SDS011;66938;52.084;5.228;2023-02-28T05:27:23;6.5;;;4.0;;
77748;SDS011;66938;52.084;5.228;2023-02-28T05:30:36;5.9;;;4.0;;
77748;SDS011;66938;52.084;5.228;2023-02-28T05:32:12;5.5;;;3.7;;
77748;SDS011;66938;52.084;5.228;2023-02-28T05:33:49;6.3;;;4.0;;
77748;SDS011;66938;52.084;5.228;2023-02-28T05:35:26;5.5;;;4.0;;
77748;SDS011;66938;52.084;5.228;2023-02-28T05:38:39;5.0;;;3.9;;
77748;SDS011;66938;52.084;5.228;2023-02-28T05:40:15;4.91;;;3.9;;
77748;SDS011;66938;52.084;5.228;2023-02-28T05:41:52;5.7;;;4.1;;
77748;SDS011;66938;52.084;5.228;2023-02-28T05:45:05;6.6;;;4.1;;
77748;SDS011;66938;52.084;5.228;2023-02-28T05:46:41;5.7;;;4.2;;
77748;SDS011;66938;52.084;5.228;2023-02-28T05:48:17;4.91;;;4.0;;
77748;SDS011;66938;52.084;5.228;2023-02-28T05:49:53;4.91;;;4.0;;
77748;SDS011;66938;52.084;5.228;2023-02-28T05:53:06;5.9;;;4.41;;
77748;SDS011;66938;52.084;5.228;2023-02-28T05:54:42;6.5;;;4.5;;
77748;SDS011;66938;52.084;5.228;2023-02-28T05:56:18;7.4;;;5.0;;
77748;SDS011;66938;52.084;5.228;2023-02-28T05:59:30;6.2;;;4.8;;
77748;SDS011;66938;52.084;5.228;2023-02-28T06:01:30;6.4;;;4.7;;
77748;SDS011;66938;52.084;5.228;2023-02-28T06:03:09;5.3;;;4.41;;
77748;SDS011;66938;52.084;5.228;2023-02-28T06:04:45;6.3;;;4.8;;
77748;SDS011;66938;52.084;5.228;2023-02-28T06:07:58;6.7;;;5.0;;
77748;SDS011;66938;52.084;5.228;2023-02-28T06:09:34;7.1;;;5.0;;
77748;SDS011;66938;52.084;5.228;2023-02-28T06:11:11;6.6;;;5.3;;
77748;SDS011;66938;52.084;5.228;2023-02-28T06:14:24;7.0;;;5.3;;
77748;SDS011;66938;52.084;5.228;2023-02-28T06:16:01;6.3;;;5.2;;
77748;SDS011;66938;52.084;5.228;2023-02-28T06:17:37;6.0;;;5.2;;
77748;SDS011;66938;52.084;5.228;2023-02-28T06:19:13;6.7;;;5.4;;
77748;SDS011;66938;52.084;5.228;2023-02-28T06:22:28;7.6;;;5.8;;
77748;SDS011;66938;52.084;5.228;2023-02-28T06:24:05;6.6;;;5.3;;
77748;SDS011;66938;52.084;5.228;2023-02-28T06:25:44;7.6;;;6.1;;
77748;SDS011;66938;52.084;5.228;2023-02-28T06:28:57;7.7;;;5.6;;
77748;SDS011;66938;52.084;5.228;2023-02-28T06:30:33;7.1;;;6.3;;
77748;SDS011;66938;52.084;5.228;2023-02-28T06:32:09;7.2;;;5.8;;
77748;SDS011;66938;52.084;5.228;2023-02-28T06:35:22;7.0;;;6.3;;
77748;SDS011;66938;52.084;5.228;2023-02-28T06:36:58;6.9;;;6.2;;
77748;SDS011;66938;52.084;5.228;2023-02-28T06:38:36;8.31;;;6.7;;
77748;SDS011;66938;52.084;5.228;2023-02-28T06:40:14;6.6;;;6.0;;
77748;SDS011;66938;52.084;5.228;2023-02-28T06:43:27;8.71;;;7.1;;
77748;SDS011;66938;52.084;5.228;2023-02-28T06:45:06;7.3;;;6.4;;
77748;SDS011;66938;52.084;5.228;2023-02-28T06:46:43;8.0;;;6.7;;
77748;SDS011;66938;52.084;5.228;2023-02-28T06:49:56;7.4;;;6.6;;
77748;SDS011;66938;52.084;5.228;2023-02-28T06:51:33;7.4;;;6.6;;
77748;SDS011;66938;52.084;5.228;2023-02-28T06:53:09;7.7;;;6.6;;
77748;SDS011;66938;52.084;5.228;2023-02-28T06:54:45;7.7;;;6.9;;
77748;SDS011;66938;52.084;5.228;2023-02-28T06:57:57;8.1;;;7.3;;
77748;SDS011;66938;52.084;5.228;2023-02-28T06:59:34;9.4;;;7.5;;
77748;SDS011;66938;52.084;5.228;2023-02-28T07:01:10;7.9;;;7.1;;
77748;SDS011;66938;52.084;5.228;2023-02-28T07:04:25;8.71;;;7.4;;
77748;SDS011;66938;52.084;5.228;2023-02-28T07:06:01;9.5;;;7.3;;
77748;SDS011;66938;52.084;5.228;2023-02-28T07:07:38;8.4;;;7.0;;
77748;SDS011;66938;52.084;5.228;2023-02-28T07:10:52;9.31;;;7.4;;
77748;SDS011;66938;52.084;5.228;2023-02-28T07:12:28;9.5;;;7.6;;
77748;SDS011;66938;52.084;5.228;2023-02-28T07:14:05;9.5;;;7.1;;
77748;SDS011;66938;52.084;5.228;2023-02-28T07:15:41;7.3;;;6.6;;
77748;SDS011;66938;52.084;5.228;2023-02-28T07:18:53;8.31;;;7.2;;
77748;SDS011;66938;52.084;5.228;2023-02-28T07:20:29;7.7;;;7.0;;
77748;SDS011;66938;52.084;5.228;2023-02-28T07:22:07;8.81;;;7.4;;
77748;SDS011;66938;52.084;5.228;2023-02-28T07:25:20;8.5;;;7.0;;
77748;SDS011;66938;52.084;5.228;2023-02-28T07:26:56;8.4;;;7.3;;
77748;SDS011;66938;52.084;5.228;2023-02-28T07:28:33;8.71;;;7.3;;
77748;SDS011;66938;52.084;5.228;2023-02-28T07:31:46;9.0;;;7.7;;
77748;SDS011;66938;52.084;5.228;2023-02-28T07:33:22;8.5;;;7.6;;
77748;SDS011;66938;52.084;5.228;2023-02-28T07:34:58;8.0;;;6.8;;
77748;SDS011;66938;52.084;5.228;2023-02-28T07:36:35;8.5;;;6.8;;
77748;SDS011;66938;52.084;5.228;2023-02-28T07:39:47;8.71;;;6.8;;
77748;SDS011;66938;52.084;5.228;2023-02-28T07:41:23;8.5;;;7.2;;
77748;SDS011;66938;52.084;5.228;2023-02-28T07:42:59;7.8;;;7.1;;
77748;SDS011;66938;52.084;5.228;2023-02-28T07:46:14;7.9;;;6.8;;
77748;SDS011;66938;52.084;5.228;2023-02-28T07:47:51;8.31;;;7.5;;
77748;SDS011;66938;52.084;5.228;2023-02-28T07:49:29;8.4;;;7.5;;
77748;SDS011;66938;52.084;5.228;2023-02-28T07:52:41;8.5;;;7.0;;
77748;SDS011;66938;52.084;5.228;2023-02-28T07:54:18;9.5;;;7.9;;
77748;SDS011;66938;52.084;5.228;2023-02-28T07:55:55;8.5;;;7.6;;
77748;SDS011;66938;52.084;5.228;2023-02-28T07:57:31;8.9;;;8.0;;
77748;SDS011;66938;52.084;5.228;2023-02-28T08:00:44;9.5;;;8.31;;
77748;SDS011;66938;52.084;5.228;2023-02-28T08:02:20;9.9;;;8.71;;
77748;SDS011;66938;52.084;5.228;2023-02-28T08:03:56;12.8;;;9.31;;
77748;SDS011;66938;52.084;5.228;2023-02-28T08:07:08;9.9;;;7.7;;
77748;SDS011;66938;52.084;5.228;2023-02-28T08:08:44;9.0;;;7.3;;
77748;SDS011;66938;52.084;5.228;2023-02-28T08:10:20;8.9;;;7.9;;
77748;SDS011;66938;52.084;5.228;2023-02-28T08:13:33;8.6;;;7.7;;
77748;SDS011;66938;52.084;5.228;2023-02-28T08:15:09;7.7;;;6.9;;
77748;SDS011;66938;52.084;5.228;2023-02-28T08:16:46;6.9;;;6.0;;
77748;SDS011;66938;52.084;5.228;2023-02-28T08:19:59;8.5;;;5.9;;
77748;SDS011;66938;52.084;5.228;2023-02-28T08:21:36;7.0;;;6.3;;
77748;SDS011;66938;52.084;5.228;2023-02-28T08:23:12;7.3;;;5.8;;
77748;SDS011;66938;52.084;5.228;2023-02-28T08:24:49;7.5;;;6.1;;
77748;SDS011;66938;52.084;5.228;2023-02-28T08:28:01;7.7;;;5.5;;
77748;SDS011;66938;52.084;5.228;2023-02-28T08:29:38;7.4;;;5.7;;
77748;SDS011;66938;52.084;5.228;2023-02-28T08:31:15;5.7;;;4.91;;
77748;SDS011;66938;52.084;5.228;2023-02-28T08:34:29;6.5;;;5.2;;
77748;SDS011;66938;52.084;5.228;2023-02-28T08:36:05;6.7;;;5.5;;
77748;SDS011;66938;52.084;5.228;2023-02-28T08:37:43;7.3;;;4.91;;
77748;SDS011;66938;52.084;5.228;2023-02-28T08:40:57;6.5;;;5.11;;
77748;SDS011;66938;52.084;5.228;2023-02-28T08:42:35;6.3;;;4.3;;
77748;SDS011;66938;52.084;5.228;2023-02-28T08:44:12;6.0;;;4.8;;
77748;SDS011;66938;52.084;5.228;2023-02-28T08:45:50;6.0;;;4.8;;
77748;SDS011;66938;52.084;5.228;2023-02-28T08:49:03;6.4;;;4.61;;
77748;SDS011;66938;52.084;5.228;2023-02-28T08:50:39;7.7;;;4.91;;
77748;SDS011;66938;52.084;5.228;2023-02-28T08:52:15;5.7;;;4.3;;
77748;SDS011;66938;52.084;5.228;2023-02-28T08:55:30;5.8;;;4.1;;
77748;SDS011;66938;52.084;5.228;2023-02-28T08:57:06;4.91;;;4.1;;
77748;SDS011;66938;52.084;5.228;2023-02-28T08:58:42;5.9;;;4.2;;
77748;SDS011;66938;52.084;5.228;2023-02-28T09:00:21;5.9;;;4.3;;
77748;SDS011;66938;52.084;5.228;2023-02-28T09:03:33;4.8;;;4.0;;
77748;SDS011;66938;52.084;5.228;2023-02-28T09:05:10;5.7;;;4.2;;
77748;SDS011;66938;52.084;5.228;2023-02-28T09:06:46;6.5;;;4.0;;
77748;SDS011;66938;52.084;5.228;2023-02-28T09:09:59;6.4;;;4.2;;
77748;SDS011;66938;52.084;5.228;2023-02-28T09:11:35;7.3;;;4.3;;
77748;SDS011;66938;52.084;5.228;2023-02-28T09:13:12;4.7;;;3.8;;
77748;SDS011;66938;52.084;5.228;2023-02-28T09:16:25;5.8;;;4.3;;
77748;SDS011;66938;52.084;5.228;2023-02-28T09:18:01;5.8;;;4.0;;
77748;SDS011;66938;52.084;5.228;2023-02-28T09:19:37;5.11;;;3.8;;
77748;SDS011;66938;52.084;5.228;2023-02-28T09:21:14;5.8;;;3.9;;
77748;SDS011;66938;52.084;5.228;2023-02-28T09:24:28;5.9;;;4.2;;
77748;SDS011;66938;52.084;5.228;2023-02-28T09:26:04;5.5;;;4.0;;
77748;SDS011;66938;52.084;5.228;2023-02-28T09:27:42;6.6;;;4.0;;
77748;SDS011;66938;52.084;5.228;2023-02-28T09:30:54;4.8;;;3.8;;
77748;SDS011;66938;52.084;5.228;2023-02-28T09:32:31;4.91;;;3.2;;
77748;SDS011;66938;52.084;5.228;2023-02-28T09:34:07;6.1;;;3.9;;
77748;SDS011;66938;52.084;5.228;2023-02-28T09:37:19;13.8;;;7.5;;
77748;SDS011;66938;52.084;5.228;2023-02-28T09:38:56;4.8;;;3.6;;
77748;SDS011;66938;52.084;5.228;2023-02-28T09:40:32;5.7;;;3.5;;
77748;SDS011;66938;52.084;5.228;2023-02-28T09:42:17;4.8;;;3.3;;
77748;SDS011;66938;52.084;5.228;2023-02-28T09:45:50;4.1;;;3.0;;
77748;SDS011;66938;52.084;5.228;2023-02-28T09:47:31;4.3;;;3.1;;
77748;SDS011;66938;52.084;5.228;2023-02-28T09:49:12;4.7;;;3.1;;
77748;SDS011;66938;52.084;5.228;2023-02-28T09:50:52;5.5;;;3.2;;
77748;SDS011;66938;52.084;5.228;2023-02-28T09:52:36;4.1;;;3.0;;
77748;SDS011;66938;52.084;5.228;2023-02-28T09:55:53;4.7;;;3.0;;
77748;SDS011;66938;52.084;5.228;2023-02-28T09:57:36;4.7;;;3.1;;
77748;SDS011;66938;52.084;5.228;2023-02-28T09:59:18;6.6;;;3.4;;
77748;SDS011;66938;52.084;5.228;2023-02-28T10:01:19;3.5;;;2.5;;
77748;SDS011;66938;52.084;5.228;2023-02-28T10:03:12;3.9;;;2.31;;
77748;SDS011;66938;52.084;5.228;2023-02-28T10:06:44;2.5;;;1.7;;
77748;SDS011;66938;52.084;5.228;2023-02-28T10:08:25;2.9;;;2.0;;
77748;SDS011;66938;52.084;5.228;2023-02-28T10:10:06;2.6;;;1.8;;
77748;SDS011;66938;52.084;5.228;2023-02-28T10:11:57;2.4;;;1.7;;
77748;SDS011;66938;52.084;5.228;2023-02-28T10:13:43;2.6;;;1.8;;
77748;SDS011;66938;52.084;5.228;2023-02-28T10:17:08;3.0;;;1.8;;
77748;SDS011;66938;52.084;5.228;2023-02-28T10:18:50;2.8;;;2.0;;
77748;SDS011;66938;52.084;5.228;2023-02-28T10:20:35;2.31;;;1.9;;
77748;SDS011;66938;52.084;5.228;2023-02-28T10:22:14;4.0;;;2.1;;
77748;SDS011;66938;52.084;5.228;2023-02-28T10:23:59;2.8;;;2.0;;
77748;SDS011;66938;52.084;5.228;2023-02-28T10:27:34;2.6;;;1.8;;
77748;SDS011;66938;52.084;5.228;2023-02-28T10:29:10;2.7;;;2.0;;
77748;SDS011;66938;52.084;5.228;2023-02-28T10:30:48;2.7;;;1.9;;
77748;SDS011;66938;52.084;5.228;2023-02-28T10:32:26;3.8;;;2.31;;
77748;SDS011;66938;52.084;5.228;2023-02-28T10:35:47;2.8;;;2.0;;
77748;SDS011;66938;52.084;5.228;2023-02-28T10:37:24;3.2;;;1.9;;
77748;SDS011;66938;52.084;5.228;2023-02-28T10:39:01;3.0;;;2.0;;
77748;SDS011;66938;52.084;5.228;2023-02-28T10:41:11;3.4;;;1.9;;
77748;SDS011;66938;52.084;5.228;2023-02-28T10:42:56;3.0;;;2.0;;
77748;SDS011;66938;52.084;5.228;2023-02-28T10:46:11;2.8;;;1.9;;
77748;SDS011;66938;52.084;5.228;2023-02-28T10:47:52;3.1;;;1.9;;
77748;SDS011;66938;52.084;5.228;2023-02-28T10:49:30;3.6;;;1.9;;
77748;SDS011;66938;52.084;5.228;2023-02-28T10:52:46;3.1;;;2.1;;
77748;SDS011;66938;52.084;5.228;2023-02-28T10:54:22;3.5;;;2.1;;
77748;SDS011;66938;52.084;5.228;2023-02-28T10:56:04;2.9;;;1.9;;
77748;SDS011;66938;52.084;5.228;2023-02-28T10:57:49;3.4;;;2.0;;
77748;SDS011;66938;52.084;5.228;2023-02-28T11:01:10;2.21;;;1.7;;
77748;SDS011;66938;52.084;5.228;2023-02-28T11:02:49;3.1;;;2.21;;
77748;SDS011;66938;52.084;5.228;2023-02-28T11:04:34;2.9;;;1.9;;
77748;SDS011;66938;52.084;5.228;2023-02-28T11:06:14;2.0;;;1.7;;
77748;SDS011;66938;52.084;5.228;2023-02-28T11:07:54;3.0;;;2.1;;
77748;SDS011;66938;52.084;5.228;2023-02-28T11:11:14;2.6;;;1.8;;
77748;SDS011;66938;52.084;5.228;2023-02-28T11:12:54;2.31;;;1.7;;
77748;SDS011;66938;52.084;5.228;2023-02-28T11:14:33;2.4;;;1.9;;
77748;SDS011;66938;52.084;5.228;2023-02-28T11:16:30;3.1;;;1.6;;
77748;SDS011;66938;52.084;5.228;2023-02-28T11:19:59;2.5;;;1.8;;
77748;SDS011;66938;52.084;5.228;2023-02-28T11:21:39;2.6;;;1.8;;
77748;SDS011;66938;52.084;5.228;2023-02-28T11:23:24;2.7;;;1.8;;
77748;SDS011;66938;52.084;5.228;2023-02-28T11:25:06;3.0;;;1.8;;
77748;SDS011;66938;52.084;5.228;2023-02-28T11:26:46;2.7;;;1.8;;
77748;SDS011;66938;52.084;5.228;2023-02-28T11:30:11;2.9;;;1.9;;
77748;SDS011;66938;52.084;5.228;2023-02-28T11:32:05;2.7;;;2.1;;
77748;SDS011;66938;52.084;5.228;2023-02-28T11:33:49;2.6;;;1.8;;
77748;SDS011;66938;52.084;5.228;2023-02-28T11:35:28;2.5;;;2.0;;
77748;SDS011;66938;52.084;5.228;2023-02-28T11:37:12;3.0;;;1.7;;
77748;SDS011;66938;52.084;5.228;2023-02-28T11:40:31;3.4;;;2.1;;
77748;SDS011;66938;52.084;5.228;2023-02-28T11:42:23;2.6;;;1.9;;
77748;SDS011;66938;52.084;5.228;2023-02-28T11:45:22;2.8;;;1.8;;
77748;SDS011;66938;52.084;5.228;2023-02-28T11:47:15;3.1;;;1.9;;
77748;SDS011;66938;52.084;5.228;2023-02-28T11:49:02;2.6;;;1.6;;
77748;SDS011;66938;52.084;5.228;2023-02-28T11:50:56;2.9;;;1.8;;
77748;SDS011;66938;52.084;5.228;2023-02-28T11:52:43;2.9;;;1.9;;
77748;SDS011;66938;52.084;5.228;2023-02-28T11:54:27;3.3;;;1.9;;
77748;SDS011;66938;52.084;5.228;2023-02-28T11:56:29;3.2;;;2.0;;
77748;SDS011;66938;52.084;5.228;2023-02-28T11:58:14;3.3;;;1.9;;
77748;SDS011;66938;52.084;5.228;2023-02-28T12:00:29;2.6;;;1.8;;
77748;SDS011;66938;52.084;5.228;2023-02-28T12:02:22;3.0;;;2.1;;
77748;SDS011;66938;52.084;5.228;2023-02-28T12:05:58;3.0;;;1.8;;
77748;SDS011;66938;52.084;5.228;2023-02-28T12:07:56;2.7;;;1.8;;
77748;SDS011;66938;52.084;5.228;2023-02-28T12:09:46;3.0;;;1.8;;
77748;SDS011;66938;52.084;5.228;2023-02-28T12:11:40;2.7;;;1.9;;
77748;SDS011;66938;52.084;5.228;2023-02-28T12:13:28;2.5;;;1.8;;
77748;SDS011;66938;52.084;5.228;2023-02-28T12:15:17;3.6;;;1.7;;
77748;SDS011;66938;52.084;5.228;2023-02-28T12:18:26;2.7;;;2.0;;
77748;SDS011;66938;52.084;5.228;2023-02-28T12:20:29;2.9;;;2.0;;
77748;SDS011;66938;52.084;5.228;2023-02-28T12:22:16;2.7;;;1.7;;
77748;SDS011;66938;52.084;5.228;2023-02-28T12:24:08;2.6;;;1.8;;
77748;SDS011;66938;52.084;5.228;2023-02-28T12:26:28;3.1;;;1.8;;
77748;SDS011;66938;52.084;5.228;2023-02-28T12:28:13;2.6;;;1.8;;
77748;SDS011;66938;52.084;5.228;2023-02-28T12:29:54;2.9;;;1.9;;
77748;SDS011;66938;52.084;5.228;2023-02-28T12:31:35;2.6;;;1.9;;
77748;SDS011;66938;52.084;5.228;2023-02-28T12:34:57;3.2;;;2.1;;
77748;SDS011;66938;52.084;5.228;2023-02-28T12:36:40;2.6;;;1.9;;
77748;SDS011;66938;52.084;5.228;2023-02-28T12:38:19;2.7;;;1.8;;
77748;SDS011;66938;52.084;5.228;2023-02-28T12:40:01;3.2;;;1.7;;
77748;SDS011;66938;52.084;5.228;2023-02-28T12:43:22;2.5;;;1.8;;
77748;SDS011;66938;52.084;5.228;2023-02-28T12:45:08;2.7;;;1.9;;
77748;SDS011;66938;52.084;5.228;2023-02-28T12:46:51;2.7;;;1.6;;
77748;SDS011;66938;52.084;5.228;2023-02-28T12:48:36;2.6;;;1.8;;
77748;SDS011;66938;52.084;5.228;2023-02-28T12:51:56;3.3;;;1.8;;
77748;SDS011;66938;52.084;5.228;2023-02-28T12:53:36;2.1;;;1.5;;
77748;SDS011;66938;52.084;5.228;2023-02-28T12:55:27;2.5;;;1.7;;
77748;SDS011;66938;52.084;5.228;2023-02-28T12:57:15;2.4;;;1.6;;
77748;SDS011;66938;52.084;5.228;2023-02-28T12:59:01;2.9;;;1.6;;
77748;SDS011;66938;52.084;5.228;2023-02-28T13:03:42;3.1;;;1.7;;